sensor_id;sensor_type;location;lat;lon;timestamp;temperature;humidity
40287;DHT22;25998;46.604;13.610;2023-03-22T00:00:00;10.70;99.90
40287;DHT22;25998;46.604;13.610;2023-03-22T00:03:11;10.70;99.90
40287;DHT22;25998;46.604;13.610;2023-03-22T00:06:22;10.70;99.90
40287;DHT22;25998;46.604;13.610;2023-03-22T00:09:33;10.70;99.90
40287;DHT22;25998;46.604;13.610;2023-03-22T00:12:44;10.70;99.90
40287;DHT22;25998;46.604;13.610;2023-03-22T00:15:55;10.90;99.90
40287;DHT22;25998;46.604;13.610;2023-03-22T00:19:07;11.00;99.90
40287;DHT22;25998;46.604;13.610;2023-03-22T00:22:18;11.20;99.90
40287;DHT22;25998;46.604;13.610;2023-03-22T00:25:29;11.20;99.90
40287;DHT22;25998;46.604;13.610;2023-03-22T00:28:40;11.20;99.90
40287;DHT22;25998;46.604;13.610;2023-03-22T00:31:51;11.20;99.90
40287;DHT22;25998;46.604;13.610;2023-03-22T00:35:05;10.90;99.90
40287;DHT22;25998;46.604;13.610;2023-03-22T00:38:17;10.80;99.90
40287;DHT22;25998;46.604;13.610;2023-03-22T00:41:28;10.70;99.90
40287;DHT22;25998;46.604;13.610;2023-03-22T00:44:38;10.70;99.90
40287;DHT22;25998;46.604;13.610;2023-03-22T00:47:49;10.80;99.90
40287;DHT22;25998;46.604;13.610;2023-03-22T00:51:01;10.80;99.90
40287;DHT22;25998;46.604;13.610;2023-03-22T00:54:12;10.70;99.90
40287;DHT22;25998;46.604;13.610;2023-03-22T00:57:23;10.70;99.90
40287;DHT22;25998;46.604;13.610;2023-03-22T01:00:34;10.60;99.90
40287;DHT22;25998;46.604;13.610;2023-03-22T01:03:45;10.60;99.90
40287;DHT22;25998;46.604;13.610;2023-03-22T01:06:59;10.60;99.90
40287;DHT22;25998;46.604;13.610;2023-03-22T01:10:11;10.60;99.90
40287;DHT22;25998;46.604;13.610;2023-03-22T01:13:22;10.50;99.90
40287;DHT22;25998;46.604;13.610;2023-03-22T01:16:33;10.50;99.90
40287;DHT22;25998;46.604;13.610;2023-03-22T01:19:44;10.50;99.90
40287;DHT22;25998;46.604;13.610;2023-03-22T01:22:55;10.50;99.90
40287;DHT22;25998;46.604;13.610;2023-03-22T01:26:06;10.60;99.90
40287;DHT22;25998;46.604;13.610;2023-03-22T01:29:16;10.70;99.90
40287;DHT22;25998;46.604;13.610;2023-03-22T01:32:27;10.70;99.90
40287;DHT22;25998;46.604;13.610;2023-03-22T01:35:38;10.60;99.90
40287;DHT22;25998;46.604;13.610;2023-03-22T01:38:49;10.60;99.90
40287;DHT22;25998;46.604;13.610;2023-03-22T01:42:01;10.60;99.90
40287;DHT22;25998;46.604;13.610;2023-03-22T01:48:30;10.50;99.90
40287;DHT22;25998;46.604;13.610;2023-03-22T01:51:47;10.60;99.90
40287;DHT22;25998;46.604;13.610;2023-03-22T01:54:58;10.70;99.90
40287;DHT22;25998;46.604;13.610;2023-03-22T01:58:09;10.80;99.90
40287;DHT22;25998;46.604;13.610;2023-03-22T02:01:21;11.00;99.90
40287;DHT22;25998;46.604;13.610;2023-03-22T02:04:36;11.10;99.90
40287;DHT22;25998;46.604;13.610;2023-03-22T02:07:48;11.10;99.90
40287;DHT22;25998;46.604;13.610;2023-03-22T02:11:01;11.30;99.90
40287;DHT22;25998;46.604;13.610;2023-03-22T02:14:27;11.20;99.90
40287;DHT22;25998;46.604;13.610;2023-03-22T02:18:01;10.90;99.90
40287;DHT22;25998;46.604;13.610;2023-03-22T02:21:55;10.70;99.90
40287;DHT22;25998;46.604;13.610;2023-03-22T02:43:11;10.70;99.90
40287;DHT22;25998;46.604;13.610;2023-03-22T02:46:25;10.80;99.90
40287;DHT22;25998;46.604;13.610;2023-03-22T02:49:46;10.80;99.90
40287;DHT22;25998;46.604;13.610;2023-03-22T02:53:16;10.80;99.90
40287;DHT22;25998;46.604;13.610;2023-03-22T02:56:42;10.80;99.90
40287;DHT22;25998;46.604;13.610;2023-03-22T02:59:57;11.00;99.90
40287;DHT22;25998;46.604;13.610;2023-03-22T03:03:11;10.90;99.90
40287;DHT22;25998;46.604;13.610;2023-03-22T03:06:27;10.70;99.90
40287;DHT22;25998;46.604;13.610;2023-03-22T03:09:41;10.60;99.90
40287;DHT22;25998;46.604;13.610;2023-03-22T03:12:52;10.50;99.90
40287;DHT22;25998;46.604;13.610;2023-03-22T03:16:04;10.60;99.90
40287;DHT22;25998;46.604;13.610;2023-03-22T03:19:29;10.80;99.90
40287;DHT22;25998;46.604;13.610;2023-03-22T03:22:55;10.70;99.90
40287;DHT22;25998;46.604;13.610;2023-03-22T03:29:45;10.40;99.90
40287;DHT22;25998;46.604;13.610;2023-03-22T03:33:03;10.40;99.90
40287;DHT22;25998;46.604;13.610;2023-03-22T03:36:16;10.30;99.90
40287;DHT22;25998;46.604;13.610;2023-03-22T03:39:31;10.30;99.90
40287;DHT22;25998;46.604;13.610;2023-03-22T03:42:47;10.30;99.90
40287;DHT22;25998;46.604;13.610;2023-03-22T03:45:59;10.20;99.90
40287;DHT22;25998;46.604;13.610;2023-03-22T03:49:12;10.00;99.90
40287;DHT22;25998;46.604;13.610;2023-03-22T03:52:24;10.10;99.90
40287;DHT22;25998;46.604;13.610;2023-03-22T03:55:35;10.00;99.90
40287;DHT22;25998;46.604;13.610;2023-03-22T03:58:47;9.90;99.90
40287;DHT22;25998;46.604;13.610;2023-03-22T04:01:58;9.90;99.90
40287;DHT22;25998;46.604;13.610;2023-03-22T04:05:11;9.90;99.90
40287;DHT22;25998;46.604;13.610;2023-03-22T04:08:22;9.90;99.90
40287;DHT22;25998;46.604;13.610;2023-03-22T04:11:32;9.80;99.90
40287;DHT22;25998;46.604;13.610;2023-03-22T04:14:43;9.80;99.90
40287;DHT22;25998;46.604;13.610;2023-03-22T04:17:55;9.70;99.90
40287;DHT22;25998;46.604;13.610;2023-03-22T04:21:06;9.60;99.90
40287;DHT22;25998;46.604;13.610;2023-03-22T04:24:17;9.40;99.90
40287;DHT22;25998;46.604;13.610;2023-03-22T04:27:28;9.40;99.90
40287;DHT22;25998;46.604;13.610;2023-03-22T04:30:39;9.30;99.90
40287;DHT22;25998;46.604;13.610;2023-03-22T04:33:50;9.30;99.90
40287;DHT22;25998;46.604;13.610;2023-03-22T04:37:04;9.30;99.90
40287;DHT22;25998;46.604;13.610;2023-03-22T04:40:15;9.30;99.90
40287;DHT22;25998;46.604;13.610;2023-03-22T04:43:26;9.30;99.90
40287;DHT22;25998;46.604;13.610;2023-03-22T04:46:37;9.30;99.90
40287;DHT22;25998;46.604;13.610;2023-03-22T04:49:48;9.20;99.90
40287;DHT22;25998;46.604;13.610;2023-03-22T04:52:59;9.10;99.90
40287;DHT22;25998;46.604;13.610;2023-03-22T04:56:12;9.00;99.90
40287;DHT22;25998;46.604;13.610;2023-03-22T04:59:23;9.00;99.90
40287;DHT22;25998;46.604;13.610;2023-03-22T05:02:36;9.00;99.90
40287;DHT22;25998;46.604;13.610;2023-03-22T05:05:58;9.20;99.90
40287;DHT22;25998;46.604;13.610;2023-03-22T05:09:09;9.30;99.90
40287;DHT22;25998;46.604;13.610;2023-03-22T05:12:20;9.20;99.90
40287;DHT22;25998;46.604;13.610;2023-03-22T05:15:31;9.10;99.90
40287;DHT22;25998;46.604;13.610;2023-03-22T05:18:42;9.20;99.90
40287;DHT22;25998;46.604;13.610;2023-03-22T05:21:55;9.20;99.90
40287;DHT22;25998;46.604;13.610;2023-03-22T05:25:08;9.20;99.90
40287;DHT22;25998;46.604;13.610;2023-03-22T05:28:21;9.10;99.90
40287;DHT22;25998;46.604;13.610;2023-03-22T05:31:32;9.00;99.90
40287;DHT22;25998;46.604;13.610;2023-03-22T05:34:44;9.00;99.90
40287;DHT22;25998;46.604;13.610;2023-03-22T05:37:55;9.00;99.90
40287;DHT22;25998;46.604;13.610;2023-03-22T05:41:06;9.00;99.90
40287;DHT22;25998;46.604;13.610;2023-03-22T05:44:17;9.20;99.90
40287;DHT22;25998;46.604;13.610;2023-03-22T05:47:28;9.10;99.90
40287;DHT22;25998;46.604;13.610;2023-03-22T05:50:39;9.00;99.90
40287;DHT22;25998;46.604;13.610;2023-03-22T05:53:50;9.00;99.90
40287;DHT22;25998;46.604;13.610;2023-03-22T05:57:02;9.20;99.90
40287;DHT22;25998;46.604;13.610;2023-03-22T06:00:15;9.30;99.90
40287;DHT22;25998;46.604;13.610;2023-03-22T06:03:26;9.30;99.90
40287;DHT22;25998;46.604;13.610;2023-03-22T06:06:37;9.50;99.90
40287;DHT22;25998;46.604;13.610;2023-03-22T06:09:48;9.50;99.90
40287;DHT22;25998;46.604;13.610;2023-03-22T06:13:00;9.60;99.90
40287;DHT22;25998;46.604;13.610;2023-03-22T06:16:11;9.60;99.90
40287;DHT22;25998;46.604;13.610;2023-03-22T06:19:22;9.60;99.90
40287;DHT22;25998;46.604;13.610;2023-03-22T06:22:35;9.40;99.90
40287;DHT22;25998;46.604;13.610;2023-03-22T06:25:46;9.20;99.90
40287;DHT22;25998;46.604;13.610;2023-03-22T06:28:57;9.20;99.90
40287;DHT22;25998;46.604;13.610;2023-03-22T06:32:07;9.10;99.90
40287;DHT22;25998;46.604;13.610;2023-03-22T06:35:18;9.00;99.90
40287;DHT22;25998;46.604;13.610;2023-03-22T06:38:29;8.90;99.90
40287;DHT22;25998;46.604;13.610;2023-03-22T06:41:40;8.90;99.90
40287;DHT22;25998;46.604;13.610;2023-03-22T06:44:53;8.90;99.90
40287;DHT22;25998;46.604;13.610;2023-03-22T06:48:05;9.00;99.90
40287;DHT22;25998;46.604;13.610;2023-03-22T06:51:16;9.30;99.90
40287;DHT22;25998;46.604;13.610;2023-03-22T06:54:27;9.60;99.90
40287;DHT22;25998;46.604;13.610;2023-03-22T06:57:38;9.90;99.90
40287;DHT22;25998;46.604;13.610;2023-03-22T07:00:49;10.30;99.90
40287;DHT22;25998;46.604;13.610;2023-03-22T07:04:00;10.50;99.90
40287;DHT22;25998;46.604;13.610;2023-03-22T07:07:14;10.70;99.90
40287;DHT22;25998;46.604;13.610;2023-03-22T07:10:24;10.70;99.90
40287;DHT22;25998;46.604;13.610;2023-03-22T07:13:41;10.50;99.90
40287;DHT22;25998;46.604;13.610;2023-03-22T07:16:52;10.50;99.90
40287;DHT22;25998;46.604;13.610;2023-03-22T07:20:03;10.50;99.90
40287;DHT22;25998;46.604;13.610;2023-03-22T07:23:14;10.50;99.90
40287;DHT22;25998;46.604;13.610;2023-03-22T07:26:26;10.70;99.90
40287;DHT22;25998;46.604;13.610;2023-03-22T07:29:36;10.90;99.90
40287;DHT22;25998;46.604;13.610;2023-03-22T07:32:47;11.00;99.90
40287;DHT22;25998;46.604;13.610;2023-03-22T07:35:59;11.20;99.90
40287;DHT22;25998;46.604;13.610;2023-03-22T07:39:09;11.30;99.90
40287;DHT22;25998;46.604;13.610;2023-03-22T07:42:20;11.50;99.90
40287;DHT22;25998;46.604;13.610;2023-03-22T07:45:31;11.70;99.90
40287;DHT22;25998;46.604;13.610;2023-03-22T07:48:42;11.70;99.90
40287;DHT22;25998;46.604;13.610;2023-03-22T07:51:53;12.00;99.90
40287;DHT22;25998;46.604;13.610;2023-03-22T07:55:04;12.40;99.90
40287;DHT22;25998;46.604;13.610;2023-03-22T07:58:15;13.00;99.90
40287;DHT22;25998;46.604;13.610;2023-03-22T08:01:26;13.60;99.90
40287;DHT22;25998;46.604;13.610;2023-03-22T08:04:37;14.10;99.90
40287;DHT22;25998;46.604;13.610;2023-03-22T08:07:48;14.30;99.60
40287;DHT22;25998;46.604;13.610;2023-03-22T08:11:01;14.50;99.50
40287;DHT22;25998;46.604;13.610;2023-03-22T08:14:12;14.70;99.10
40287;DHT22;25998;46.604;13.610;2023-03-22T08:17:23;14.90;99.30
40287;DHT22;25998;46.604;13.610;2023-03-22T08:20:35;15.20;98.10
40287;DHT22;25998;46.604;13.610;2023-03-22T08:23:50;15.50;98.00
40287;DHT22;25998;46.604;13.610;2023-03-22T08:27:01;15.50;97.20
40287;DHT22;25998;46.604;13.610;2023-03-22T08:30:13;15.70;97.40
40287;DHT22;25998;46.604;13.610;2023-03-22T08:33:24;15.90;96.40
40287;DHT22;25998;46.604;13.610;2023-03-22T08:36:36;15.90;96.20
40287;DHT22;25998;46.604;13.610;2023-03-22T08:39:47;16.20;95.90
40287;DHT22;25998;46.604;13.610;2023-03-22T08:42:58;16.30;95.20
40287;DHT22;25998;46.604;13.610;2023-03-22T08:46:09;16.30;95.30
40287;DHT22;25998;46.604;13.610;2023-03-22T08:49:20;16.30;96.30
40287;DHT22;25998;46.604;13.610;2023-03-22T08:52:31;16.30;95.50
40287;DHT22;25998;46.604;13.610;2023-03-22T08:55:42;16.60;95.00
40287;DHT22;25998;46.604;13.610;2023-03-22T08:58:55;16.90;94.30
40287;DHT22;25998;46.604;13.610;2023-03-22T09:02:08;16.90;93.60
40287;DHT22;25998;46.604;13.610;2023-03-22T09:05:21;17.10;93.00
40287;DHT22;25998;46.604;13.610;2023-03-22T09:08:35;17.40;92.90
40287;DHT22;25998;46.604;13.610;2023-03-22T09:11:46;17.50;92.40
40287;DHT22;25998;46.604;13.610;2023-03-22T09:14:57;17.90;93.50
40287;DHT22;25998;46.604;13.610;2023-03-22T09:18:08;17.80;92.60
40287;DHT22;25998;46.604;13.610;2023-03-22T09:21:18;17.70;92.20
40287;DHT22;25998;46.604;13.610;2023-03-22T09:24:31;18.10;93.50
40287;DHT22;25998;46.604;13.610;2023-03-22T09:27:42;18.10;92.50
40287;DHT22;25998;46.604;13.610;2023-03-22T09:30:53;18.20;92.20
40287;DHT22;25998;46.604;13.610;2023-03-22T09:34:04;18.40;92.10
40287;DHT22;25998;46.604;13.610;2023-03-22T09:37:15;18.50;91.70
40287;DHT22;25998;46.604;13.610;2023-03-22T09:40:28;18.30;91.00
40287;DHT22;25998;46.604;13.610;2023-03-22T09:43:51;18.00;91.40
40287;DHT22;25998;46.604;13.610;2023-03-22T09:47:14;18.20;91.90
40287;DHT22;25998;46.604;13.610;2023-03-22T09:50:31;18.60;91.40
40287;DHT22;25998;46.604;13.610;2023-03-22T09:53:42;18.60;91.30
40287;DHT22;25998;46.604;13.610;2023-03-22T09:57:03;18.80;90.80
40287;DHT22;25998;46.604;13.610;2023-03-22T10:00:27;18.90;90.80
40287;DHT22;25998;46.604;13.610;2023-03-22T10:10:48;18.90;90.00
40287;DHT22;25998;46.604;13.610;2023-03-22T10:14:29;18.40;91.40
40287;DHT22;25998;46.604;13.610;2023-03-22T10:17:43;18.30;91.10
40287;DHT22;25998;46.604;13.610;2023-03-22T10:21:06;18.50;90.70
40287;DHT22;25998;46.604;13.610;2023-03-22T10:24:22;19.20;91.00
40287;DHT22;25998;46.604;13.610;2023-03-22T10:27:34;20.00;91.10
40287;DHT22;25998;46.604;13.610;2023-03-22T10:30:54;19.70;89.30
40287;DHT22;25998;46.604;13.610;2023-03-22T10:34:06;19.50;90.40
40287;DHT22;25998;46.604;13.610;2023-03-22T10:37:23;19.60;91.00
40287;DHT22;25998;46.604;13.610;2023-03-22T10:40:35;19.60;90.70
40287;DHT22;25998;46.604;13.610;2023-03-22T10:43:56;19.70;89.00
40287;DHT22;25998;46.604;13.610;2023-03-22T10:47:09;20.10;89.80
40287;DHT22;25998;46.604;13.610;2023-03-22T10:50:25;20.00;89.40
40287;DHT22;25998;46.604;13.610;2023-03-22T10:53:49;20.10;90.80
40287;DHT22;25998;46.604;13.610;2023-03-22T10:57:02;20.00;89.60
40287;DHT22;25998;46.604;13.610;2023-03-22T11:00:15;20.10;89.50
40287;DHT22;25998;46.604;13.610;2023-03-22T11:06:51;20.40;87.60
40287;DHT22;25998;46.604;13.610;2023-03-22T11:13:19;20.40;87.80
40287;DHT22;25998;46.604;13.610;2023-03-22T11:16:46;20.50;87.30
40287;DHT22;25998;46.604;13.610;2023-03-22T11:20:02;20.60;88.60
40287;DHT22;25998;46.604;13.610;2023-03-22T11:23:16;20.70;88.30
40287;DHT22;25998;46.604;13.610;2023-03-22T11:26:35;20.50;89.00
40287;DHT22;25998;46.604;13.610;2023-03-22T11:29:51;20.60;87.90
40287;DHT22;25998;46.604;13.610;2023-03-22T11:36:21;21.30;88.20
40287;DHT22;25998;46.604;13.610;2023-03-22T11:39:32;21.30;86.20
40287;DHT22;25998;46.604;13.610;2023-03-22T11:42:47;21.10;85.30
40287;DHT22;25998;46.604;13.610;2023-03-22T11:45:59;20.90;85.90
40287;DHT22;25998;46.604;13.610;2023-03-22T11:49:15;21.10;85.80
40287;DHT22;25998;46.604;13.610;2023-03-22T11:52:27;21.40;86.60
40287;DHT22;25998;46.604;13.610;2023-03-22T11:55:38;21.10;85.60
40287;DHT22;25998;46.604;13.610;2023-03-22T11:58:56;21.40;88.30
40287;DHT22;25998;46.604;13.610;2023-03-22T12:02:26;21.10;84.80
40287;DHT22;25998;46.604;13.610;2023-03-22T12:05:42;21.10;85.30
40287;DHT22;25998;46.604;13.610;2023-03-22T12:12:41;21.40;83.70
40287;DHT22;25998;46.604;13.610;2023-03-22T12:16:01;21.70;85.90
40287;DHT22;25998;46.604;13.610;2023-03-22T12:22:33;21.80;83.50
40287;DHT22;25998;46.604;13.610;2023-03-22T12:25:52;21.70;82.70
40287;DHT22;25998;46.604;13.610;2023-03-22T12:29:07;21.80;85.00
40287;DHT22;25998;46.604;13.610;2023-03-22T12:32:32;21.60;84.50
40287;DHT22;25998;46.604;13.610;2023-03-22T12:35:45;21.60;83.60
40287;DHT22;25998;46.604;13.610;2023-03-22T12:38:59;21.50;81.70
40287;DHT22;25998;46.604;13.610;2023-03-22T12:42:19;21.40;86.90
40287;DHT22;25998;46.604;13.610;2023-03-22T12:45:47;21.50;84.40
40287;DHT22;25998;46.604;13.610;2023-03-22T12:52:48;21.30;81.50
40287;DHT22;25998;46.604;13.610;2023-03-22T12:56:00;21.20;79.40
40287;DHT22;25998;46.604;13.610;2023-03-22T12:59:27;21.50;82.00
40287;DHT22;25998;46.604;13.610;2023-03-22T13:02:51;21.30;81.40
40287;DHT22;25998;46.604;13.610;2023-03-22T13:06:27;21.40;83.20
40287;DHT22;25998;46.604;13.610;2023-03-22T13:13:09;22.30;79.80
40287;DHT22;25998;46.604;13.610;2023-03-22T13:16:22;21.60;79.10
40287;DHT22;25998;46.604;13.610;2023-03-22T13:19:57;21.50;81.40
40287;DHT22;25998;46.604;13.610;2023-03-22T13:23:10;21.30;79.80
40287;DHT22;25998;46.604;13.610;2023-03-22T13:29:49;21.70;77.90
40287;DHT22;25998;46.604;13.610;2023-03-22T13:33:13;21.70;79.20
40287;DHT22;25998;46.604;13.610;2023-03-22T13:36:30;21.50;78.70
40287;DHT22;25998;46.604;13.610;2023-03-22T13:39:50;21.30;80.00
40287;DHT22;25998;46.604;13.610;2023-03-22T13:43:21;21.30;77.80
40287;DHT22;25998;46.604;13.610;2023-03-22T13:49:53;21.30;77.20
40287;DHT22;25998;46.604;13.610;2023-03-22T13:53:28;21.40;77.30
40287;DHT22;25998;46.604;13.610;2023-03-22T14:03:41;21.70;77.10
40287;DHT22;25998;46.604;13.610;2023-03-22T14:06:59;22.00;77.50
40287;DHT22;25998;46.604;13.610;2023-03-22T14:10:36;21.40;77.20
40287;DHT22;25998;46.604;13.610;2023-03-22T14:13:53;21.20;77.20
40287;DHT22;25998;46.604;13.610;2023-03-22T14:17:17;21.20;76.70
40287;DHT22;25998;46.604;13.610;2023-03-22T14:20:37;21.30;79.10
40287;DHT22;25998;46.604;13.610;2023-03-22T14:23:51;21.40;77.30
40287;DHT22;25998;46.604;13.610;2023-03-22T14:27:06;21.20;78.00
40287;DHT22;25998;46.604;13.610;2023-03-22T14:33:45;21.00;77.10
40287;DHT22;25998;46.604;13.610;2023-03-22T14:36:57;20.80;78.60
40287;DHT22;25998;46.604;13.610;2023-03-22T14:40:34;20.70;77.30
40287;DHT22;25998;46.604;13.610;2023-03-22T14:43:47;20.80;76.90
40287;DHT22;25998;46.604;13.610;2023-03-22T14:47:13;20.80;76.60
40287;DHT22;25998;46.604;13.610;2023-03-22T14:50:25;20.80;77.70
40287;DHT22;25998;46.604;13.610;2023-03-22T14:53:40;20.70;76.90
40287;DHT22;25998;46.604;13.610;2023-03-22T14:56:52;20.40;76.60
40287;DHT22;25998;46.604;13.610;2023-03-22T15:00:12;20.60;79.30
40287;DHT22;25998;46.604;13.610;2023-03-22T15:03:28;20.60;76.80
40287;DHT22;25998;46.604;13.610;2023-03-22T15:07:02;20.40;78.30
40287;DHT22;25998;46.604;13.610;2023-03-22T15:10:26;20.30;77.40
40287;DHT22;25998;46.604;13.610;2023-03-22T15:13:38;20.30;77.60
40287;DHT22;25998;46.604;13.610;2023-03-22T15:16:53;20.20;77.40
40287;DHT22;25998;46.604;13.610;2023-03-22T15:20:05;20.20;77.30
40287;DHT22;25998;46.604;13.610;2023-03-22T15:23:37;20.10;77.50
40287;DHT22;25998;46.604;13.610;2023-03-22T15:26:49;20.10;78.60
40287;DHT22;25998;46.604;13.610;2023-03-22T15:30:00;20.00;78.30
40287;DHT22;25998;46.604;13.610;2023-03-22T15:33:37;19.90;80.10
40287;DHT22;25998;46.604;13.610;2023-03-22T15:36:51;19.80;79.50
40287;DHT22;25998;46.604;13.610;2023-03-22T15:40:06;19.70;79.20
40287;DHT22;25998;46.604;13.610;2023-03-22T15:43:33;19.70;79.60
40287;DHT22;25998;46.604;13.610;2023-03-22T15:47:08;19.70;80.50
40287;DHT22;25998;46.604;13.610;2023-03-22T15:50:23;19.60;79.60
40287;DHT22;25998;46.604;13.610;2023-03-22T15:53:34;19.60;79.60
40287;DHT22;25998;46.604;13.610;2023-03-22T15:56:47;19.50;80.30
40287;DHT22;25998;46.604;13.610;2023-03-22T16:06:26;19.20;80.50
40287;DHT22;25998;46.604;13.610;2023-03-22T16:09:43;19.40;80.40
40287;DHT22;25998;46.604;13.610;2023-03-22T16:12:56;19.40;80.70
40287;DHT22;25998;46.604;13.610;2023-03-22T16:16:14;19.40;79.90
40287;DHT22;25998;46.604;13.610;2023-03-22T16:19:26;19.30;81.30
40287;DHT22;25998;46.604;13.610;2023-03-22T16:22:40;19.20;82.50
40287;DHT22;25998;46.604;13.610;2023-03-22T16:25:52;19.20;81.10
40287;DHT22;25998;46.604;13.610;2023-03-22T16:29:03;19.10;83.50
40287;DHT22;25998;46.604;13.610;2023-03-22T16:32:33;18.60;85.60
40287;DHT22;25998;46.604;13.610;2023-03-22T16:35:44;18.40;86.10
40287;DHT22;25998;46.604;13.610;2023-03-22T16:38:55;18.30;87.20
40287;DHT22;25998;46.604;13.610;2023-03-22T16:42:10;18.30;87.30
40287;DHT22;25998;46.604;13.610;2023-03-22T16:45:24;18.20;87.60
40287;DHT22;25998;46.604;13.610;2023-03-22T16:48:35;17.70;88.80
40287;DHT22;25998;46.604;13.610;2023-03-22T16:51:47;17.40;89.30
40287;DHT22;25998;46.604;13.610;2023-03-22T16:54:58;17.30;88.70
40287;DHT22;25998;46.604;13.610;2023-03-22T16:58:11;17.30;89.70
40287;DHT22;25998;46.604;13.610;2023-03-22T17:01:22;17.10;90.00
40287;DHT22;25998;46.604;13.610;2023-03-22T17:04:33;16.90;90.00
40287;DHT22;25998;46.604;13.610;2023-03-22T17:07:44;16.80;90.30
40287;DHT22;25998;46.604;13.610;2023-03-22T17:10:55;16.60;90.50
40287;DHT22;25998;46.604;13.610;2023-03-22T17:14:10;16.40;90.80
40287;DHT22;25998;46.604;13.610;2023-03-22T17:17:22;16.10;91.30
40287;DHT22;25998;46.604;13.610;2023-03-22T17:20:37;16.10;91.60
40287;DHT22;25998;46.604;13.610;2023-03-22T17:23:49;16.00;91.60
40287;DHT22;25998;46.604;13.610;2023-03-22T17:27:00;15.80;91.20
40287;DHT22;25998;46.604;13.610;2023-03-22T17:30:12;15.70;91.90
40287;DHT22;25998;46.604;13.610;2023-03-22T17:33:23;15.70;92.00
40287;DHT22;25998;46.604;13.610;2023-03-22T17:36:34;15.60;91.60
40287;DHT22;25998;46.604;13.610;2023-03-22T17:39:45;15.60;91.70
40287;DHT22;25998;46.604;13.610;2023-03-22T17:42:56;15.20;92.30
40287;DHT22;25998;46.604;13.610;2023-03-22T17:46:07;15.00;92.40
40287;DHT22;25998;46.604;13.610;2023-03-22T17:49:21;15.20;92.20
40287;DHT22;25998;46.604;13.610;2023-03-22T17:52:32;15.10;92.10
40287;DHT22;25998;46.604;13.610;2023-03-22T17:55:42;14.90;92.40
40287;DHT22;25998;46.604;13.610;2023-03-22T17:58:58;14.90;92.50
40287;DHT22;25998;46.604;13.610;2023-03-22T18:02:17;14.70;92.50
40287;DHT22;25998;46.604;13.610;2023-03-22T18:05:30;14.60;92.70
40287;DHT22;25998;46.604;13.610;2023-03-22T18:08:41;14.50;92.80
40287;DHT22;25998;46.604;13.610;2023-03-22T18:11:52;14.30;93.20
40287;DHT22;25998;46.604;13.610;2023-03-22T18:15:04;14.30;93.30
40287;DHT22;25998;46.604;13.610;2023-03-22T18:18:17;14.30;93.10
40287;DHT22;25998;46.604;13.610;2023-03-22T18:21:30;14.20;93.10
40287;DHT22;25998;46.604;13.610;2023-03-22T18:24:47;14.00;93.40
40287;DHT22;25998;46.604;13.610;2023-03-22T18:27:58;13.90;93.60
40287;DHT22;25998;46.604;13.610;2023-03-22T18:31:12;13.80;94.00
40287;DHT22;25998;46.604;13.610;2023-03-22T18:34:23;13.70;93.90
40287;DHT22;25998;46.604;13.610;2023-03-22T18:37:34;13.70;93.90
40287;DHT22;25998;46.604;13.610;2023-03-22T18:40:48;13.70;93.90
40287;DHT22;25998;46.604;13.610;2023-03-22T18:44:02;13.60;94.10
40287;DHT22;25998;46.604;13.610;2023-03-22T18:47:15;13.50;94.30
40287;DHT22;25998;46.604;13.610;2023-03-22T18:50:29;13.30;94.90
40287;DHT22;25998;46.604;13.610;2023-03-22T18:53:40;13.20;94.60
40287;DHT22;25998;46.604;13.610;2023-03-22T18:56:51;13.20;94.70
40287;DHT22;25998;46.604;13.610;2023-03-22T19:00:04;13.20;94.70
40287;DHT22;25998;46.604;13.610;2023-03-22T19:03:16;13.20;94.90
40287;DHT22;25998;46.604;13.610;2023-03-22T19:06:29;13.20;94.70
40287;DHT22;25998;46.604;13.610;2023-03-22T19:09:42;13.20;94.70
40287;DHT22;25998;46.604;13.610;2023-03-22T19:12:53;13.00;94.90
40287;DHT22;25998;46.604;13.610;2023-03-22T19:16:12;13.00;95.00
40287;DHT22;25998;46.604;13.610;2023-03-22T19:19:25;13.20;94.80
40287;DHT22;25998;46.604;13.610;2023-03-22T19:22:39;13.00;95.00
40287;DHT22;25998;46.604;13.610;2023-03-22T19:25:51;12.90;95.10
40287;DHT22;25998;46.604;13.610;2023-03-22T19:29:02;12.70;95.40
40287;DHT22;25998;46.604;13.610;2023-03-22T19:32:15;12.60;95.40
40287;DHT22;25998;46.604;13.610;2023-03-22T19:35:26;12.50;95.60
40287;DHT22;25998;46.604;13.610;2023-03-22T19:38:37;12.40;95.80
40287;DHT22;25998;46.604;13.610;2023-03-22T19:41:49;12.40;95.80
40287;DHT22;25998;46.604;13.610;2023-03-22T19:45:00;12.30;95.90
40287;DHT22;25998;46.604;13.610;2023-03-22T19:48:12;12.30;95.90
40287;DHT22;25998;46.604;13.610;2023-03-22T19:51:25;12.30;96.00
40287;DHT22;25998;46.604;13.610;2023-03-22T19:54:36;12.30;96.10
40287;DHT22;25998;46.604;13.610;2023-03-22T19:57:47;12.30;96.10
40287;DHT22;25998;46.604;13.610;2023-03-22T20:01:05;12.20;96.20
40287;DHT22;25998;46.604;13.610;2023-03-22T20:04:22;12.10;96.40
40287;DHT22;25998;46.604;13.610;2023-03-22T20:07:36;12.00;96.60
40287;DHT22;25998;46.604;13.610;2023-03-22T20:10:50;11.90;96.90
40287;DHT22;25998;46.604;13.610;2023-03-22T20:14:02;11.90;96.90
40287;DHT22;25998;46.604;13.610;2023-03-22T20:17:13;11.80;96.90
40287;DHT22;25998;46.604;13.610;2023-03-22T20:20:24;11.80;97.10
40287;DHT22;25998;46.604;13.610;2023-03-22T20:23:35;11.80;97.00
40287;DHT22;25998;46.604;13.610;2023-03-22T20:26:49;11.80;97.00
40287;DHT22;25998;46.604;13.610;2023-03-22T20:30:00;11.80;97.10
40287;DHT22;25998;46.604;13.610;2023-03-22T20:33:13;11.80;97.50
40287;DHT22;25998;46.604;13.610;2023-03-22T20:36:24;11.70;97.40
40287;DHT22;25998;46.604;13.610;2023-03-22T20:39:35;11.80;97.40
40287;DHT22;25998;46.604;13.610;2023-03-22T20:42:46;11.70;97.40
40287;DHT22;25998;46.604;13.610;2023-03-22T20:45:58;11.60;97.70
40287;DHT22;25998;46.604;13.610;2023-03-22T20:49:11;11.40;98.10
40287;DHT22;25998;46.604;13.610;2023-03-22T20:52:24;11.40;98.00
40287;DHT22;25998;46.604;13.610;2023-03-22T20:55:36;11.40;98.10
40287;DHT22;25998;46.604;13.610;2023-03-22T20:58:46;11.60;97.90
40287;DHT22;25998;46.604;13.610;2023-03-22T21:01:58;11.60;97.70
40287;DHT22;25998;46.604;13.610;2023-03-22T21:05:09;11.60;97.70
40287;DHT22;25998;46.604;13.610;2023-03-22T21:08:24;11.50;98.00
40287;DHT22;25998;46.604;13.610;2023-03-22T21:11:35;11.50;98.10
40287;DHT22;25998;46.604;13.610;2023-03-22T21:14:45;11.40;98.20
40287;DHT22;25998;46.604;13.610;2023-03-22T21:17:59;11.50;98.20
40287;DHT22;25998;46.604;13.610;2023-03-22T21:21:10;11.40;98.30
40287;DHT22;25998;46.604;13.610;2023-03-22T21:24:21;11.30;98.50
40287;DHT22;25998;46.604;13.610;2023-03-22T21:27:33;11.30;98.70